Ascanius — V7FS9 — position and weather

sailwx.info

Track history (hours):
 
Tides and Currents Weather Stations Pressure Air Temp Water Temp Dewpoint Dewpoint Depression Visibility Wind Speed Wind Dir Waves Ship Positions

Ascanius

Last reported at 2017-Feb-12 15:31 UTC. Time now 2017-Feb-28 03:23 UTC.
Position N 46°12' W 125°31'.
Warning: this ship's position is 15 days out of date.

Length 225 m; draft 13.1 m.

Type: Cargo ship. MMSI: 538002012.

Date/timePositionNaut miles runAvg speedWind from/ knotsBaromVisibWave heightAir tempDewpointWater temp
2017-Feb-12 15:31N 46°12' W 125°31'9 9.7
2017-Feb-12 14:33N 46°12' W 125°17'10 9.9
2017-Feb-12 13:34N 46°12' W 125°03'10 9.8
2017-Feb-12 12:33N 46°12' W 124°49'10 9.9
2017-Feb-12 11:34N 46°12' W 124°35'1010.3
2017-Feb-12 10:33N 46°13' W 124°20'9 9.3
2017-Feb-12 09:34N 46°14' W 124°07'7 6.5
2017-Feb-12 08:34N 46°13' W 123°57'7 6.9
2017-Feb-12 07:34N 46°12' W 123°47'9 9.1
2017-Feb-12 06:34N 46°15' W 123°35'8 8.2
2017-Feb-12 05:33N 46°11' W 123°25'1010.2
2017-Feb-12 04:33N 46°11' W 123°11'1110.7
2017-Feb-12 03:33N 46°06' W 122°57'9 9.5
2017-Feb-12 02:33N 45°58' W 122°50'1111.2
2017-Feb-12 01:33N 45°47' W 122°47'8 8.3
2017-Feb-12 00:34N 45°39' W 122°45'0 0.1
2017-Feb-11 23:33N 45°39' W 122°46'0 0.0
2017-Feb-11 22:33N 45°39' W 122°46'0 0.0
2017-Feb-11 21:33N 45°39' W 122°46'0 0.0
2017-Feb-11 20:32N 45°39' W 122°46'0 0.0
2017-Feb-11 19:32N 45°39' W 122°46'0 0.0
2017-Feb-11 18:32N 45°39' W 122°46'0 0.1
2017-Feb-11 17:32N 45°39' W 122°46'0 0.0
2017-Feb-11 16:32N 45°39' W 122°46'0 0.0
2017-Feb-11 15:32N 45°39' W 122°46'0 0.0
2017-Feb-11 14:32N 45°39' W 122°46'0 0.0
2017-Feb-11 13:32N 45°39' W 122°46'0 0.0
2017-Feb-11 12:29N 45°39' W 122°46'0 0.0
2017-Feb-11 11:29N 45°39' W 122°46'0 0.0
2017-Feb-11 10:32N 45°39' W 122°46'0 0.0
2017-Feb-11 09:32N 45°39' W 122°46'0 0.0
2017-Feb-11 08:29N 45°39' W 122°46'0 0.0
2017-Feb-11 07:29N 45°39' W 122°46'0 0.0
2017-Feb-11 06:32N 45°39' W 122°46'0 0.0
2017-Feb-11 05:29N 45°39' W 122°46'0 0.0
2017-Feb-11 04:26N 45°39' W 122°46'0 0.0
2017-Feb-11 03:32N 45°39' W 122°46'0 0.0
2017-Feb-11 02:33N 45°39' W 122°46'0 0.0
2017-Feb-11 01:33N 45°39' W 122°46'0 0.0
2017-Feb-11 00:33N 45°39' W 122°46'0 0.0
2017-Feb-10 23:33N 45°39' W 122°46'0 0.0
2017-Feb-10 22:33N 45°39' W 122°46'0 0.0
2017-Feb-10 21:32N 45°39' W 122°46'0 0.0
2017-Feb-10 20:33N 45°39' W 122°46'0 0.0
2017-Feb-10 19:30N 45°39' W 122°46'0 0.0
2017-Feb-10 18:33N 45°39' W 122°46'0 0.0
2017-Feb-10 17:30N 45°39' W 122°46'0 0.0
2017-Feb-10 16:33N 45°39' W 122°46'0 0.0
2017-Feb-10 15:33N 45°39' W 122°46'0 0.0
2017-Feb-10 14:33N 45°39' W 122°46'0 0.0
2017-Feb-10 13:32N 45°39' W 122°46'0 0.0
2017-Feb-10 12:33N 45°39' W 122°46'0 0.0
2017-Feb-10 11:27N 45°39' W 122°46'0 0.0
2017-Feb-10 10:29N 45°39' W 122°46'0 0.0
2017-Feb-10 09:33N 45°39' W 122°46'0 0.0
2017-Feb-10 08:33N 45°39' W 122°46'0 0.0
2017-Feb-10 07:33N 45°39' W 122°46'0 0.0
2017-Feb-10 06:33N 45°39' W 122°46'0 0.0
2017-Feb-10 05:33N 45°39' W 122°46'0 0.0
2017-Feb-10 04:32N 45°39' W 122°46'0 0.0
2017-Feb-10 03:30N 45°39' W 122°46'0 0.0
2017-Feb-10 02:33N 45°39' W 122°46'0 0.0
2017-Feb-10 01:32N 45°39' W 122°46'0 0.0
2017-Feb-10 00:29N 45°39' W 122°46'0 0.0
2017-Feb-09 23:32N 45°39' W 122°46'0 0.0
2017-Feb-09 22:33N 45°39' W 122°46'0 0.1
2017-Feb-09 21:33N 45°39' W 122°46'0 0.0
2017-Feb-09 20:33N 45°39' W 122°46'0 0.0
2017-Feb-09 19:29N 45°39' W 122°46'0 0.0
2017-Feb-09 18:32N 45°39' W 122°46'0 0.1
2017-Feb-09 17:33N 45°39' W 122°45'3 2.9
2017-Feb-09 16:32N 45°38' W 122°42'0 0.0
2017-Feb-09 15:29N 45°38' W 122°42'0 0.0
2017-Feb-09 14:32N 45°38' W 122°42'0 0.0
2017-Feb-09 13:32N 45°38' W 122°42'0 0.0
2017-Feb-09 12:32N 45°38' W 122°42'0 0.0
2017-Feb-09 11:32N 45°38' W 122°42'0 0.0
2017-Feb-09 10:32N 45°38' W 122°42'0 0.0
2017-Feb-09 09:29N 45°38' W 122°42'0 0.0
2017-Feb-09 08:32N 45°38' W 122°42'0 0.0
2017-Feb-09 07:32N 45°38' W 122°42'0 0.0
2017-Feb-09 06:32N 45°38' W 122°42'0 0.0
2017-Feb-09 05:29N 45°38' W 122°42'0 0.0
2017-Feb-09 04:32N 45°38' W 122°42'0 0.0
2017-Feb-09 03:32N 45°38' W 122°42'0 0.0
2017-Feb-09 02:32N 45°38' W 122°42'0 0.0
2017-Feb-09 01:32N 45°38' W 122°42'0 0.0
2017-Feb-09 00:32N 45°38' W 122°42'0 0.0
2017-Feb-08 23:32N 45°38' W 122°42'0 0.0
2017-Feb-08 22:32N 45°38' W 122°42'0 0.0
2017-Feb-08 21:32N 45°38' W 122°42'0 0.0
2017-Feb-08 20:32N 45°38' W 122°42'0 0.0
2017-Feb-08 19:32N 45°38' W 122°42'0 0.0
2017-Feb-08 18:32N 45°38' W 122°42'0 0.0
2017-Feb-08 17:32N 45°38' W 122°42'0 0.0
2017-Feb-08 16:32N 45°38' W 122°42'0 0.0
2017-Feb-08 15:32N 45°38' W 122°42'0 0.0
2017-Feb-08 14:32N 45°38' W 122°42'0 0.0
2017-Feb-08 13:32N 45°38' W 122°42'0 0.0
2017-Feb-08 12:32N 45°38' W 122°42'0 0.0
2017-Feb-08 11:32N 45°38' W 122°42'0 0.0
2017-Feb-08 10:32N 45°38' W 122°42'0 0.0
2017-Feb-08 09:32N 45°38' W 122°42'0 0.0
2017-Feb-08 08:33N 45°38' W 122°42'0 0.0
2017-Feb-08 07:32N 45°38' W 122°42'0 0.0
2017-Feb-08 06:29N 45°38' W 122°42'0 0.0
2017-Feb-08 05:29N 45°38' W 122°42'0 0.0
2017-Feb-08 04:32N 45°38' W 122°42'0 0.0
2017-Feb-08 03:32N 45°38' W 122°42'0 0.0
2017-Feb-08 02:32N 45°38' W 122°42'0 0.0
2017-Feb-08 01:32N 45°38' W 122°42'0 0.0
2017-Feb-08 00:32N 45°38' W 122°42'0 0.0
2017-Feb-07 23:32N 45°38' W 122°42'0 0.0
2017-Feb-07 22:31N 45°38' W 122°42'0 0.0
2017-Feb-07 21:31N 45°38' W 122°42'0 0.0
2017-Feb-07 20:28N 45°38' W 122°42'0 0.0
2017-Feb-07 19:31N 45°38' W 122°42'0 0.0
2017-Feb-07 18:31N 45°38' W 122°42'0 0.0
2017-Feb-07 17:28N 45°38' W 122°42'0 0.0
2017-Feb-07 16:31N 45°38' W 122°42'0 0.0
2017-Feb-07 15:31N 45°38' W 122°42'0 0.0
2017-Feb-07 14:31N 45°38' W 122°42'0 0.0
2017-Feb-07 13:31N 45°38' W 122°42'0 0.0
2017-Feb-07 12:31N 45°38' W 122°42'0 0.0
2017-Feb-07 11:31N 45°38' W 122°42'0 0.0
2017-Feb-07 10:31N 45°38' W 122°42'0 0.0
2017-Feb-07 09:31N 45°38' W 122°42'0 0.0
2017-Feb-07 08:31N 45°38' W 122°42'0 0.0
2017-Feb-07 07:31N 45°38' W 122°42'0 0.0
2017-Feb-07 06:31N 45°38' W 122°42'0 0.0
2017-Feb-07 05:31N 45°38' W 122°42'0 0.0
2017-Feb-07 04:28N 45°38' W 122°42'0 0.0
2017-Feb-07 03:31N 45°38' W 122°42'0 0.0
2017-Feb-07 02:31N 45°38' W 122°42'0 0.0
2017-Feb-07 01:31N 45°38' W 122°42'0 0.0
2017-Feb-07 00:31N 45°38' W 122°42'0 0.0
2017-Feb-06 23:31N 45°38' W 122°42'0 0.0
2017-Feb-06 22:25N 45°38' W 122°42'0 0.0
2017-Feb-06 21:31N 45°38' W 122°42'0 0.0
2017-Feb-06 20:31N 45°38' W 122°42'0 0.0
2017-Feb-06 19:25N 45°38' W 122°42'0 0.1
2017-Feb-06 18:32N 45°38' W 122°42'0 0.0
2017-Feb-06 17:31N 45°38' W 122°42'0 0.0
2017-Feb-06 16:31N 45°38' W 122°42'0 0.0
2017-Feb-06 15:34N 45°38' W 122°42'0 0.0
2017-Feb-06 14:31N 45°38' W 122°42'0 0.0
2017-Feb-06 13:28N 45°38' W 122°42'0 0.0
2017-Feb-06 12:31N 45°38' W 122°42'0 0.0
2017-Feb-06 11:31N 45°38' W 122°42'0 0.0
2017-Feb-06 10:31N 45°38' W 122°42'0 0.0
2017-Feb-06 09:31N 45°38' W 122°42'0 0.0
2017-Feb-06 08:31N 45°38' W 122°42'0 0.0
2017-Feb-06 07:31N 45°38' W 122°42'0 0.0
2017-Feb-06 06:31N 45°38' W 122°42'0 0.0
2017-Feb-06 05:28N 45°38' W 122°42'0 0.0
2017-Feb-06 04:31N 45°38' W 122°42'0 0.0
2017-Feb-06 03:31N 45°38' W 122°42'0 0.1
2017-Feb-06 02:33N 45°38' W 122°42'5 5.3
2017-Feb-06 01:33N 45°42' W 122°46'10 9.9
2017-Feb-06 00:33N 45°52' W 122°47'10 9.4
2017-Feb-05 23:32N 46°01' W 122°52'2 1.9
2017-Feb-05 22:33N 46°03' W 122°53'0 0.0
2017-Feb-05 21:33N 46°03' W 122°53'0 0.0
2017-Feb-05 20:33N 46°03' W 122°53'0 0.0
2017-Feb-05 19:33N 46°03' W 122°53'0 0.0
2017-Feb-05 18:33N 46°03' W 122°53'0 0.0
2017-Feb-05 17:33N 46°03' W 122°53'0 0.0
2017-Feb-05 16:33N 46°03' W 122°53'0 0.0
2017-Feb-05 15:33N 46°03' W 122°53'0 0.0
2017-Feb-05 14:33N 46°03' W 122°53'0 0.0
2017-Feb-05 13:33N 46°03' W 122°53'0 0.0
2017-Feb-05 12:33N 46°03' W 122°53'0 0.0
2017-Feb-05 11:33N 46°03' W 122°53'0 0.0
2017-Feb-05 10:33N 46°03' W 122°53'0 0.0
2017-Feb-05 09:33N 46°03' W 122°53'0 0.0
2017-Feb-05 08:33N 46°03' W 122°53'0 0.0
2017-Feb-05 07:33N 46°03' W 122°53'0 0.0
2017-Feb-05 06:33N 46°03' W 122°53'0 0.0
2017-Feb-05 05:33N 46°03' W 122°53'0 0.0
2017-Feb-05 04:33N 46°03' W 122°53'0 0.0
2017-Feb-05 03:33N 46°03' W 122°53'0 0.0
2017-Feb-05 02:33N 46°03' W 122°53'0 0.0
2017-Feb-05 01:33N 46°03' W 122°53'0 0.0
2017-Feb-05 00:33N 46°03' W 122°53'0 0.0
2017-Feb-04 23:33N 46°03' W 122°53'0 0.0
2017-Feb-04 22:33N 46°03' W 122°53'0 0.0
2017-Feb-04 21:33N 46°03' W 122°53'0 0.0
2017-Feb-04 20:33N 46°03' W 122°53'0 0.0
2017-Feb-04 19:30N 46°03' W 122°53'0 0.0
2017-Feb-04 18:30N 46°03' W 122°53'0 0.0
2017-Feb-04 17:27N 46°03' W 122°53'0 0.0
2017-Feb-04 16:33N 46°03' W 122°53'0 0.0
2017-Feb-04 15:33N 46°03' W 122°53'0 0.0
2017-Feb-04 14:33N 46°03' W 122°53'0 0.0
2017-Feb-04 13:33N 46°03' W 122°53'0 0.0
2017-Feb-04 12:33N 46°03' W 122°53'0 0.0
2017-Feb-04 11:33N 46°03' W 122°53'0 0.0
2017-Feb-04 10:33N 46°03' W 122°53'0 0.0
2017-Feb-04 09:33N 46°03' W 122°53'0 0.0
2017-Feb-04 08:33N 46°03' W 122°53'0 0.0
2017-Feb-04 07:33N 46°03' W 122°53'0 0.0
2017-Feb-04 06:33N 46°03' W 122°53'0 0.0
2017-Feb-04 05:33N 46°03' W 122°53'0 0.0
2017-Feb-04 04:33N 46°03' W 122°53'0 0.0
2017-Feb-04 03:33N 46°03' W 122°53'0 0.0
2017-Feb-04 02:33N 46°03' W 122°53'0 0.0
2017-Feb-04 01:33N 46°03' W 122°53'0 0.0
2017-Feb-04 00:33N 46°03' W 122°53'0 0.0
2017-Feb-03 23:33N 46°03' W 122°53'0 0.0
2017-Feb-03 22:33N 46°03' W 122°53'0 0.0
2017-Feb-03 21:33N 46°03' W 122°53'0 0.0
2017-Feb-03 20:33N 46°03' W 122°53'0 0.0
2017-Feb-03 19:30N 46°03' W 122°53'0 0.0
2017-Feb-03 18:33N 46°03' W 122°53'0 0.0
2017-Feb-03 17:33N 46°03' W 122°53'0 0.0
2017-Feb-03 16:33N 46°03' W 122°53'0 0.0
2017-Feb-03 15:33N 46°03' W 122°53'0 0.0
2017-Feb-03 14:33N 46°03' W 122°53'0 0.0
2017-Feb-03 13:27N 46°03' W 122°53'0 0.0
2017-Feb-03 12:33N 46°03' W 122°53'0 0.0
2017-Feb-03 11:33N 46°03' W 122°53'0 0.0
2017-Feb-03 10:33N 46°03' W 122°53'0 0.0
2017-Feb-03 09:33N 46°03' W 122°53'0 0.0
2017-Feb-03 08:33N 46°03' W 122°53'0 0.0
2017-Feb-03 07:33N 46°03' W 122°53'0 0.0
2017-Feb-03 06:33N 46°03' W 122°53'0 0.0
2017-Feb-03 05:33N 46°03' W 122°53'0 0.0
2017-Feb-03 04:33N 46°03' W 122°53'0 0.0
2017-Feb-03 03:27N 46°03' W 122°53'0 0.0
2017-Feb-03 02:30N 46°03' W 122°53'0 0.0
2017-Feb-03 01:33N 46°03' W 122°53'0 0.0
2017-Feb-03 00:33N 46°03' W 122°53'0 0.0
2017-Feb-02 23:33N 46°03' W 122°53'0 0.0
2017-Feb-02 22:33N 46°03' W 122°53'0 0.0
2017-Feb-02 21:33N 46°03' W 122°53'0 0.0
2017-Feb-02 20:33N 46°03' W 122°53'0 0.0
2017-Feb-02 19:33N 46°03' W 122°53'0 0.0
2017-Feb-02 18:33N 46°03' W 122°53'0 0.0
2017-Feb-02 17:33N 46°03' W 122°53'0 0.0
2017-Feb-02 16:33N 46°03' W 122°53'0 0.0
2017-Feb-02 15:33N 46°03' W 122°53'  
Track history (hours):
 
Tides and Currents Weather Stations Pressure Air Temp Water Temp Dewpoint Dewpoint Depression Visibility Wind Speed Wind Dir Waves Ship Positions

Ascanius

Last reported at 2017-Feb-12 15:31 UTC. Time now 2017-Feb-28 03:23 UTC.
Position N 46°12' W 125°31'.
Warning: this ship's position is 15 days out of date.

Length 225 m; draft 13.1 m.

Type: Cargo ship. MMSI: 538002012.

Date/timePositionNaut miles runAvg speedWind from/ knotsBaromVisibWave heightAir tempDewpointWater temp
2017-Feb-12 15:31N 46°12' W 125°31'9 9.7
2017-Feb-12 14:33N 46°12' W 125°17'10 9.9
2017-Feb-12 13:34N 46°12' W 125°03'10 9.8
2017-Feb-12 12:33N 46°12' W 124°49'10 9.9
2017-Feb-12 11:34N 46°12' W 124°35'1010.3
2017-Feb-12 10:33N 46°13' W 124°20'9 9.3
2017-Feb-12 09:34N 46°14' W 124°07'7 6.5
2017-Feb-12 08:34N 46°13' W 123°57'7 6.9
2017-Feb-12 07:34N 46°12' W 123°47'9 9.1
2017-Feb-12 06:34N 46°15' W 123°35'8 8.2
2017-Feb-12 05:33N 46°11' W 123°25'1010.2
2017-Feb-12 04:33N 46°11' W 123°11'1110.7
2017-Feb-12 03:33N 46°06' W 122°57'9 9.5
2017-Feb-12 02:33N 45°58' W 122°50'1111.2
2017-Feb-12 01:33N 45°47' W 122°47'8 8.3
2017-Feb-12 00:34N 45°39' W 122°45'0 0.1
2017-Feb-11 23:33N 45°39' W 122°46'0 0.0
2017-Feb-11 22:33N 45°39' W 122°46'0 0.0
2017-Feb-11 21:33N 45°39' W 122°46'0 0.0
2017-Feb-11 20:32N 45°39' W 122°46'0 0.0
2017-Feb-11 19:32N 45°39' W 122°46'0 0.0
2017-Feb-11 18:32N 45°39' W 122°46'0 0.1
2017-Feb-11 17:32N 45°39' W 122°46'0 0.0
2017-Feb-11 16:32N 45°39' W 122°46'0 0.0
2017-Feb-11 15:32N 45°39' W 122°46'0 0.0
2017-Feb-11 14:32N 45°39' W 122°46'0 0.0
2017-Feb-11 13:32N 45°39' W 122°46'0 0.0
2017-Feb-11 12:29N 45°39' W 122°46'0 0.0
2017-Feb-11 11:29N 45°39' W 122°46'0 0.0
2017-Feb-11 10:32N 45°39' W 122°46'0 0.0
2017-Feb-11 09:32N 45°39' W 122°46'0 0.0
2017-Feb-11 08:29N 45°39' W 122°46'0 0.0
2017-Feb-11 07:29N 45°39' W 122°46'0 0.0
2017-Feb-11 06:32N 45°39' W 122°46'0 0.0
2017-Feb-11 05:29N 45°39' W 122°46'0 0.0
2017-Feb-11 04:26N 45°39' W 122°46'0 0.0
2017-Feb-11 03:32N 45°39' W 122°46'0 0.0
2017-Feb-11 02:33N 45°39' W 122°46'0 0.0
2017-Feb-11 01:33N 45°39' W 122°46'0 0.0
2017-Feb-11 00:33N 45°39' W 122°46'0 0.0
2017-Feb-10 23:33N 45°39' W 122°46'0 0.0
2017-Feb-10 22:33N 45°39' W 122°46'0 0.0
2017-Feb-10 21:32N 45°39' W 122°46'0 0.0
2017-Feb-10 20:33N 45°39' W 122°46'0 0.0
2017-Feb-10 19:30N 45°39' W 122°46'0 0.0
2017-Feb-10 18:33N 45°39' W 122°46'0 0.0
2017-Feb-10 17:30N 45°39' W 122°46'0 0.0
2017-Feb-10 16:33N 45°39' W 122°46'0 0.0
2017-Feb-10 15:33N 45°39' W 122°46'0 0.0
2017-Feb-10 14:33N 45°39' W 122°46'0 0.0
2017-Feb-10 13:32N 45°39' W 122°46'0 0.0
2017-Feb-10 12:33N 45°39' W 122°46'0 0.0
2017-Feb-10 11:27N 45°39' W 122°46'0 0.0
2017-Feb-10 10:29N 45°39' W 122°46'0 0.0
2017-Feb-10 09:33N 45°39' W 122°46'0 0.0
2017-Feb-10 08:33N 45°39' W 122°46'0 0.0
2017-Feb-10 07:33N 45°39' W 122°46'0 0.0
2017-Feb-10 06:33N 45°39' W 122°46'0 0.0
2017-Feb-10 05:33N 45°39' W 122°46'0 0.0
2017-Feb-10 04:32N 45°39' W 122°46'0 0.0
2017-Feb-10 03:30N 45°39' W 122°46'0 0.0
2017-Feb-10 02:33N 45°39' W 122°46'0 0.0
2017-Feb-10 01:32N 45°39' W 122°46'0 0.0
2017-Feb-10 00:29N 45°39' W 122°46'0 0.0
2017-Feb-09 23:32N 45°39' W 122°46'0 0.0
2017-Feb-09 22:33N 45°39' W 122°46'0 0.1
2017-Feb-09 21:33N 45°39' W 122°46'0 0.0
2017-Feb-09 20:33N 45°39' W 122°46'0 0.0
2017-Feb-09 19:29N 45°39' W 122°46'0 0.0
2017-Feb-09 18:32N 45°39' W 122°46'0 0.1
2017-Feb-09 17:33N 45°39' W 122°45'3 2.9
2017-Feb-09 16:32N 45°38' W 122°42'0 0.0
2017-Feb-09 15:29N 45°38' W 122°42'0 0.0
2017-Feb-09 14:32N 45°38' W 122°42'0 0.0
2017-Feb-09 13:32N 45°38' W 122°42'0 0.0
2017-Feb-09 12:32N 45°38' W 122°42'0 0.0
2017-Feb-09 11:32N 45°38' W 122°42'0 0.0
2017-Feb-09 10:32N 45°38' W 122°42'0 0.0
2017-Feb-09 09:29N 45°38' W 122°42'0 0.0
2017-Feb-09 08:32N 45°38' W 122°42'0 0.0
2017-Feb-09 07:32N 45°38' W 122°42'0 0.0
2017-Feb-09 06:32N 45°38' W 122°42'0 0.0
2017-Feb-09 05:29N 45°38' W 122°42'0 0.0
2017-Feb-09 04:32N 45°38' W 122°42'0 0.0
2017-Feb-09 03:32N 45°38' W 122°42'0 0.0
2017-Feb-09 02:32N 45°38' W 122°42'0 0.0
2017-Feb-09 01:32N 45°38' W 122°42'0 0.0
2017-Feb-09 00:32N 45°38' W 122°42'0 0.0
2017-Feb-08 23:32N 45°38' W 122°42'0 0.0
2017-Feb-08 22:32N 45°38' W 122°42'0 0.0
2017-Feb-08 21:32N 45°38' W 122°42'0 0.0
2017-Feb-08 20:32N 45°38' W 122°42'0 0.0
2017-Feb-08 19:32N 45°38' W 122°42'0 0.0
2017-Feb-08 18:32N 45°38' W 122°42'0 0.0
2017-Feb-08 17:32N 45°38' W 122°42'0 0.0
2017-Feb-08 16:32N 45°38' W 122°42'0 0.0
2017-Feb-08 15:32N 45°38' W 122°42'0 0.0
2017-Feb-08 14:32N 45°38' W 122°42'0 0.0
2017-Feb-08 13:32N 45°38' W 122°42'0 0.0
2017-Feb-08 12:32N 45°38' W 122°42'0 0.0
2017-Feb-08 11:32N 45°38' W 122°42'0 0.0
2017-Feb-08 10:32N 45°38' W 122°42'0 0.0
2017-Feb-08 09:32N 45°38' W 122°42'0 0.0
2017-Feb-08 08:33N 45°38' W 122°42'0 0.0
2017-Feb-08 07:32N 45°38' W 122°42'0 0.0
2017-Feb-08 06:29N 45°38' W 122°42'0 0.0
2017-Feb-08 05:29N 45°38' W 122°42'0 0.0
2017-Feb-08 04:32N 45°38' W 122°42'0 0.0
2017-Feb-08 03:32N 45°38' W 122°42'0 0.0
2017-Feb-08 02:32N 45°38' W 122°42'0 0.0
2017-Feb-08 01:32N 45°38' W 122°42'0 0.0
2017-Feb-08 00:32N 45°38' W 122°42'0 0.0
2017-Feb-07 23:32N 45°38' W 122°42'0 0.0
2017-Feb-07 22:31N 45°38' W 122°42'0 0.0
2017-Feb-07 21:31N 45°38' W 122°42'0 0.0
2017-Feb-07 20:28N 45°38' W 122°42'0 0.0
2017-Feb-07 19:31N 45°38' W 122°42'0 0.0
2017-Feb-07 18:31N 45°38' W 122°42'0 0.0
2017-Feb-07 17:28N 45°38' W 122°42'0 0.0
2017-Feb-07 16:31N 45°38' W 122°42'0 0.0
2017-Feb-07 15:31N 45°38' W 122°42'0 0.0
2017-Feb-07 14:31N 45°38' W 122°42'0 0.0
2017-Feb-07 13:31N 45°38' W 122°42'0 0.0
2017-Feb-07 12:31N 45°38' W 122°42'0 0.0
2017-Feb-07 11:31N 45°38' W 122°42'0 0.0
2017-Feb-07 10:31N 45°38' W 122°42'0 0.0
2017-Feb-07 09:31N 45°38' W 122°42'0 0.0
2017-Feb-07 08:31N 45°38' W 122°42'0 0.0
2017-Feb-07 07:31N 45°38' W 122°42'0 0.0
2017-Feb-07 06:31N 45°38' W 122°42'0 0.0
2017-Feb-07 05:31N 45°38' W 122°42'0 0.0
2017-Feb-07 04:28N 45°38' W 122°42'0 0.0
2017-Feb-07 03:31N 45°38' W 122°42'0 0.0
2017-Feb-07 02:31N 45°38' W 122°42'0 0.0
2017-Feb-07 01:31N 45°38' W 122°42'0 0.0
2017-Feb-07 00:31N 45°38' W 122°42'0 0.0
2017-Feb-06 23:31N 45°38' W 122°42'0 0.0
2017-Feb-06 22:25N 45°38' W 122°42'0 0.0
2017-Feb-06 21:31N 45°38' W 122°42'0 0.0
2017-Feb-06 20:31N 45°38' W 122°42'0 0.0
2017-Feb-06 19:25N 45°38' W 122°42'0 0.1
2017-Feb-06 18:32N 45°38' W 122°42'0 0.0
2017-Feb-06 17:31N 45°38' W 122°42'0 0.0
2017-Feb-06 16:31N 45°38' W 122°42'0 0.0
2017-Feb-06 15:34N 45°38' W 122°42'0 0.0
2017-Feb-06 14:31N 45°38' W 122°42'0 0.0
2017-Feb-06 13:28N 45°38' W 122°42'0 0.0
2017-Feb-06 12:31N 45°38' W 122°42'0 0.0
2017-Feb-06 11:31N 45°38' W 122°42'0 0.0
2017-Feb-06 10:31N 45°38' W 122°42'0 0.0
2017-Feb-06 09:31N 45°38' W 122°42'0 0.0
2017-Feb-06 08:31N 45°38' W 122°42'0 0.0
2017-Feb-06 07:31N 45°38' W 122°42'0 0.0
2017-Feb-06 06:31N 45°38' W 122°42'0 0.0
2017-Feb-06 05:28N 45°38' W 122°42'0 0.0
2017-Feb-06 04:31N 45°38' W 122°42'0 0.0
2017-Feb-06 03:31N 45°38' W 122°42'0 0.1
2017-Feb-06 02:33N 45°38' W 122°42'5 5.3
2017-Feb-06 01:33N 45°42' W 122°46'10 9.9
2017-Feb-06 00:33N 45°52' W 122°47'10 9.4
2017-Feb-05 23:32N 46°01' W 122°52'2 1.9
2017-Feb-05 22:33N 46°03' W 122°53'0 0.0
2017-Feb-05 21:33N 46°03' W 122°53'0 0.0
2017-Feb-05 20:33N 46°03' W 122°53'0 0.0
2017-Feb-05 19:33N 46°03' W 122°53'0 0.0
2017-Feb-05 18:33N 46°03' W 122°53'0 0.0
2017-Feb-05 17:33N 46°03' W 122°53'0 0.0
2017-Feb-05 16:33N 46°03' W 122°53'0 0.0
2017-Feb-05 15:33N 46°03' W 122°53'0 0.0
2017-Feb-05 14:33N 46°03' W 122°53'0 0.0
2017-Feb-05 13:33N 46°03' W 122°53'0 0.0
2017-Feb-05 12:33N 46°03' W 122°53'0 0.0
2017-Feb-05 11:33N 46°03' W 122°53'0 0.0
2017-Feb-05 10:33N 46°03' W 122°53'0 0.0
2017-Feb-05 09:33N 46°03' W 122°53'0 0.0
2017-Feb-05 08:33N 46°03' W 122°53'0 0.0
2017-Feb-05 07:33N 46°03' W 122°53'0 0.0
2017-Feb-05 06:33N 46°03' W 122°53'0 0.0
2017-Feb-05 05:33N 46°03' W 122°53'0 0.0
2017-Feb-05 04:33N 46°03' W 122°53'0 0.0
2017-Feb-05 03:33N 46°03' W 122°53'0 0.0
2017-Feb-05 02:33N 46°03' W 122°53'0 0.0
2017-Feb-05 01:33N 46°03' W 122°53'0 0.0
2017-Feb-05 00:33N 46°03' W 122°53'0 0.0
2017-Feb-04 23:33N 46°03' W 122°53'0 0.0
2017-Feb-04 22:33N 46°03' W 122°53'0 0.0
2017-Feb-04 21:33N 46°03' W 122°53'0 0.0
2017-Feb-04 20:33N 46°03' W 122°53'0 0.0
2017-Feb-04 19:30N 46°03' W 122°53'0 0.0
2017-Feb-04 18:30N 46°03' W 122°53'0 0.0
2017-Feb-04 17:27N 46°03' W 122°53'0 0.0
2017-Feb-04 16:33N 46°03' W 122°53'0 0.0
2017-Feb-04 15:33N 46°03' W 122°53'0 0.0
2017-Feb-04 14:33N 46°03' W 122°53'0 0.0
2017-Feb-04 13:33N 46°03' W 122°53'0 0.0
2017-Feb-04 12:33N 46°03' W 122°53'0 0.0
2017-Feb-04 11:33N 46°03' W 122°53'0 0.0
2017-Feb-04 10:33N 46°03' W 122°53'0 0.0
2017-Feb-04 09:33N 46°03' W 122°53'0 0.0
2017-Feb-04 08:33N 46°03' W 122°53'0 0.0
2017-Feb-04 07:33N 46°03' W 122°53'0 0.0
2017-Feb-04 06:33N 46°03' W 122°53'0 0.0
2017-Feb-04 05:33N 46°03' W 122°53'0 0.0
2017-Feb-04 04:33N 46°03' W 122°53'0 0.0
2017-Feb-04 03:33N 46°03' W 122°53'0 0.0
2017-Feb-04 02:33N 46°03' W 122°53'0 0.0
2017-Feb-04 01:33N 46°03' W 122°53'0 0.0
2017-Feb-04 00:33N 46°03' W 122°53'0 0.0
2017-Feb-03 23:33N 46°03' W 122°53'0 0.0
2017-Feb-03 22:33N 46°03' W 122°53'0 0.0
2017-Feb-03 21:33N 46°03' W 122°53'0 0.0
2017-Feb-03 20:33N 46°03' W 122°53'0 0.0
2017-Feb-03 19:30N 46°03' W 122°53'0 0.0
2017-Feb-03 18:33N 46°03' W 122°53'0 0.0
2017-Feb-03 17:33N 46°03' W 122°53'0 0.0
2017-Feb-03 16:33N 46°03' W 122°53'0 0.0
2017-Feb-03 15:33N 46°03' W 122°53'0 0.0
2017-Feb-03 14:33N 46°03' W 122°53'0 0.0
2017-Feb-03 13:27N 46°03' W 122°53'0 0.0
2017-Feb-03 12:33N 46°03' W 122°53'0 0.0
2017-Feb-03 11:33N 46°03' W 122°53'0 0.0
2017-Feb-03 10:33N 46°03' W 122°53'0 0.0
2017-Feb-03 09:33N 46°03' W 122°53'0 0.0
2017-Feb-03 08:33N 46°03' W 122°53'0 0.0
2017-Feb-03 07:33N 46°03' W 122°53'0 0.0
2017-Feb-03 06:33N 46°03' W 122°53'0 0.0
2017-Feb-03 05:33N 46°03' W 122°53'0 0.0
2017-Feb-03 04:33N 46°03' W 122°53'0 0.0
2017-Feb-03 03:27N 46°03' W 122°53'0 0.0
2017-Feb-03 02:30N 46°03' W 122°53'0 0.0
2017-Feb-03 01:33N 46°03' W 122°53'0 0.0
2017-Feb-03 00:33N 46°03' W 122°53'0 0.0
2017-Feb-02 23:33N 46°03' W 122°53'0 0.0
2017-Feb-02 22:33N 46°03' W 122°53'0 0.0
2017-Feb-02 21:33N 46°03' W 122°53'0 0.0
2017-Feb-02 20:33N 46°03' W 122°53'0 0.0
2017-Feb-02 19:33N 46°03' W 122°53'0 0.0
2017-Feb-02 18:33N 46°03' W 122°53'0 0.0
2017-Feb-02 17:33N 46°03' W 122°53'0 0.0
2017-Feb-02 16:33N 46°03' W 122°53'0 0.0
2017-Feb-02 15:33N 46°03' W 122°53'  

Dump ship's entire track history